Time;durP1;ratioP1;P1;durP2;ratioP2;P2;SDS_P1;SDS_P2;PMS_P1;PMS_P2;Temp;Humidity;BMP_temperature;BMP_pressure;BME280_temperature;BME280_humidity;BME280_pressure;Samples;Min_cycle;Max_cycle;Signal;HPM_P1;HPM_P2
2023/01/30 00:02:07;;;;;;;18.53;7.27;;;-2.30;99.90;;;;;;5054310;28;20185;-85
2023/01/30 00:04:33;;;;;;;9.90;5.27;;;-2.20;99.90;;;;;;5054553;28;20197;-85
2023/01/30 00:06:58;;;;;;;12.70;6.13;;;-2.20;99.90;;;;;;5054305;28;20255;-85
2023/01/30 00:09:24;;;;;;;14.40;6.83;;;-2.30;99.90;;;;;;5056458;28;20189;-84
2023/01/30 00:11:50;;;;;;;1.83;0.50;;;-2.30;99.90;;;;;;5065220;28;20181;-85
2023/01/30 00:14:15;;;;;;;15.30;7.20;;;-2.30;99.90;;;;;;5054327;28;20622;-85
2023/01/30 00:16:41;;;;;;;15.90;7.27;;;-2.40;99.90;;;;;;5059136;28;20180;-85
2023/01/30 00:19:07;;;;;;;13.87;6.67;;;-2.40;99.90;;;;;;5067190;28;20646;-84
2023/01/30 00:21:32;;;;;;;10.17;5.30;;;-2.40;99.90;;;;;;5063113;28;20507;-84
2023/01/30 00:23:59;;;;;;;12.53;6.57;;;-2.40;99.90;;;;;;5055724;28;20220;-84
2023/01/30 00:26:25;;;;;;;15.43;6.20;;;-2.40;99.90;;;;;;5064633;28;20649;-84
2023/01/30 00:28:51;;;;;;;20.10;7.73;;;-2.50;99.90;;;;;;5043890;28;20423;-84
2023/01/30 00:31:16;;;;;;;14.07;7.13;;;-2.50;99.90;;;;;;5064996;28;20261;-84
2023/01/30 00:33:42;;;;;;;14.07;6.40;;;-2.50;99.90;;;;;;5052767;28;20185;-84
2023/01/30 00:36:09;;;;;;;11.70;6.47;;;-2.50;99.90;;;;;;5054276;28;20606;-85
2023/01/30 00:38:35;;;;;;;20.43;8.63;;;-2.50;99.90;;;;;;5067426;28;20645;-84
2023/01/30 00:41:00;;;;;;;14.50;6.93;;;-2.50;99.90;;;;;;5062271;28;20420;-84
2023/01/30 00:49:15;;;;;;;18.67;7.47;;;-2.60;99.90;;;;;;5045617;28;20796;-84
2023/01/30 00:51:41;;;;;;;12.57;6.30;;;-2.60;99.90;;;;;;5069364;28;20419;-85
2023/01/30 00:54:07;;;;;;;15.07;6.37;;;-2.60;99.90;;;;;;5055004;28;20286;-84
2023/01/30 00:56:32;;;;;;;20.23;8.33;;;-2.60;99.90;;;;;;5051704;28;20181;-84
2023/01/30 00:58:58;;;;;;;14.80;7.20;;;-2.70;99.90;;;;;;5052771;28;20219;-84
2023/01/30 01:01:23;;;;;;;11.73;7.37;;;-2.70;99.90;;;;;;5050292;28;20170;-84
2023/01/30 01:03:49;;;;;;;1.73;0.73;;;-2.70;99.90;;;;;;5052696;28;20178;-84
2023/01/30 01:06:14;;;;;;;19.20;8.53;;;-2.70;99.90;;;;;;5053410;28;20174;-84
2023/01/30 01:08:40;;;;;;;14.90;7.73;;;-2.60;99.90;;;;;;5053341;28;20591;-85
2023/01/30 01:11:06;;;;;;;15.77;8.40;;;-2.60;99.90;;;;;;5053834;28;20182;-85
2023/01/30 01:13:31;;;;;;;16.63;7.20;;;-2.60;99.90;;;;;;5044966;28;20654;-84
2023/01/30 01:15:57;;;;;;;18.83;7.83;;;-2.70;99.90;;;;;;5061354;28;20227;-84
2023/01/30 01:18:22;;;;;;;19.00;7.93;;;-2.70;99.90;;;;;;5040070;28;20232;-85
2023/01/30 01:20:48;;;;;;;19.00;8.17;;;-2.70;99.90;;;;;;5065440;28;20536;-84
2023/01/30 01:23:14;;;;;;;25.73;8.80;;;-2.70;99.90;;;;;;5054029;28;20556;-84
2023/01/30 01:25:39;;;;;;;16.60;7.60;;;-2.70;99.90;;;;;;5051957;28;20605;-84
2023/01/30 01:28:05;;;;;;;14.50;7.13;;;-2.70;99.90;;;;;;5047576;28;20198;-84
2023/01/30 01:30:30;;;;;;;12.40;5.93;;;-2.60;99.90;;;;;;5057608;28;20219;-85
2023/01/30 01:32:56;;;;;;;6.60;2.83;;;-2.60;99.90;;;;;;5054107;28;20192;-85
2023/01/30 01:35:22;;;;;;;18.77;8.30;;;-2.60;99.90;;;;;;5055042;28;20623;-85
2023/01/30 01:37:51;;;;;;;15.47;5.90;;;-2.70;99.90;;;;;;5089801;22;20255;-85
2023/01/30 01:43:15;;;;;;;17.63;7.93;;;-2.70;99.90;;;;;;5072901;28;20503;-85
2023/01/30 01:45:42;;;;;;;14.87;6.17;;;-2.80;99.90;;;;;;5072751;28;20500;-85
2023/01/30 01:48:14;;;;;;;18.37;7.33;;;-2.80;99.90;;;;;;5071343;28;20462;-85
2023/01/30 01:50:51;;;;;;;20.83;7.07;;;-2.80;99.90;;;;;;5070278;28;20494;-85
2023/01/30 01:53:23;;;;;;;2.13;1.00;;;-2.80;99.90;;;;;;5072689;28;20437;-84
2023/01/30 01:55:52;;;;;;;1.10;0.53;;;-2.80;99.90;;;;;;5072850;28;20423;-84
2023/01/30 01:58:24;;;;;;;15.17;6.87;;;-2.80;99.90;;;;;;5072886;28;20455;-85
2023/01/30 02:00:50;;;;;;;1.67;0.80;;;-2.80;99.90;;;;;;5072375;28;20449;-84
2023/01/30 02:03:20;;;;;;;1.73;0.60;;;-2.80;99.90;;;;;;5072528;28;20414;-84
2023/01/30 02:05:50;;;;;;;15.40;6.43;;;-2.80;99.90;;;;;;5073122;28;20943;-85
2023/01/30 02:08:26;;;;;;;18.30;8.03;;;-2.80;99.90;;;;;;5073280;28;20462;-85
2023/01/30 02:10:55;;;;;;;11.90;6.57;;;-2.90;99.90;;;;;;5074098;28;20438;-85
2023/01/30 02:13:21;;;;;;;24.50;10.07;;;-2.90;99.90;;;;;;5076683;28;20528;-85
2023/01/30 02:15:48;;;;;;;11.70;6.53;;;-2.90;99.90;;;;;;5076326;28;20422;-86
2023/01/30 02:18:14;;;;;;;11.90;6.60;;;-2.90;99.90;;;;;;5067494;28;20891;-85
2023/01/30 02:21:07;;;;;;;11.30;6.70;;;-3.00;99.90;;;;;;5062896;28;20427;-85
2023/01/30 02:23:35;;;;;;;17.43;8.50;;;-3.00;99.90;;;;;;5076224;28;20962;-85
2023/01/30 02:26:06;;;;;;;25.60;11.40;;;-3.00;99.90;;;;;;5075069;28;20472;-85
2023/01/30 02:28:56;;;;;;;16.43;7.20;;;-3.00;99.90;;;;;;5075085;28;20828;-85
2023/01/30 02:32:18;;;;;;;15.03;7.63;;;-3.00;99.90;;;;;;5076121;28;20407;-85
2023/01/30 02:34:49;;;;;;;15.60;7.07;;;-3.00;99.90;;;;;;5050073;28;20411;-85
2023/01/30 02:37:36;;;;;;;13.70;6.43;;;-3.00;99.90;;;;;;5074881;28;20455;-85
2023/01/30 02:40:17;;;;;;;17.10;5.27;;;-3.00;99.90;;;;;;5075961;28;20498;-85
2023/01/30 02:42:51;;;;;;;19.37;7.97;;;-3.00;99.90;;;;;;5075908;28;20419;-86
2023/01/30 02:45:23;;;;;;;12.47;6.30;;;-3.00;99.90;;;;;;5071124;28;20432;-85
2023/01/30 02:48:05;;;;;;;14.60;6.63;;;-3.00;99.90;;;;;;5074691;28;20467;-86
2023/01/30 02:50:45;;;;;;;13.57;6.30;;;-3.00;99.90;;;;;;5075936;28;20510;-85
2023/01/30 02:53:11;;;;;;;15.63;6.33;;;-3.00;99.90;;;;;;5074491;28;20450;-85
2023/01/30 02:55:40;;;;;;;16.93;6.80;;;-3.00;99.90;;;;;;5076499;28;20939;-86
2023/01/30 02:58:06;;;;;;;4.03;2.83;;;-3.00;99.90;;;;;;5074789;28;20514;-85
2023/01/30 03:01:02;;;;;;;13.97;6.67;;;-3.00;99.90;;;;;;5075620;28;20749;-86
2023/01/30 03:03:33;;;;;;;16.30;7.67;;;-3.00;99.90;;;;;;5067463;28;20422;-85
2023/01/30 03:06:46;;;;;;;10.90;6.57;;;-2.90;99.90;;;;;;5075550;28;20419;-85
2023/01/30 03:09:40;;;;;;;9.03;5.20;;;-2.90;99.90;;;;;;5038172;28;20569;-85
2023/01/30 03:12:17;;;;;;;10.30;5.40;;;-2.90;99.90;;;;;;5074839;28;20423;-85
2023/01/30 03:14:59;;;;;;;11.67;6.70;;;-2.90;99.90;;;;;;5075578;28;20415;-85
2023/01/30 03:17:28;;;;;;;19.20;6.50;;;-2.90;99.90;;;;;;5075297;28;20485;-86
2023/01/30 03:19:54;;;;;;;12.80;6.47;;;-2.90;99.90;;;;;;5063237;28;20470;-85
2023/01/30 03:22:20;;;;;;;17.20;7.37;;;-2.90;99.90;;;;;;5072519;28;20892;-85
2023/01/30 03:24:48;;;;;;;15.10;6.43;;;-2.90;99.90;;;;;;5063317;28;20904;-85
2023/01/30 03:27:13;;;;;;;15.83;6.37;;;-3.00;99.90;;;;;;5059299;28;20467;-86
2023/01/30 03:29:39;;;;;;;10.23;5.53;;;-3.00;99.90;;;;;;5063228;28;20435;-86
2023/01/30 03:32:05;;;;;;;10.70;5.70;;;-3.00;99.90;;;;;;5070427;28;20576;-86
2023/01/30 03:34:31;;;;;;;12.87;5.70;;;-3.00;99.90;;;;;;5067298;28;20660;-85
2023/01/30 03:36:57;;;;;;;13.30;5.93;;;-3.00;99.90;;;;;;5072964;28;20458;-86
2023/01/30 03:39:23;;;;;;;11.73;5.13;;;-3.00;99.90;;;;;;5062690;28;20280;-85
2023/01/30 03:41:50;;;;;;;9.23;5.70;;;-3.00;99.90;;;;;;5073985;28;20192;-85
2023/01/30 03:44:15;;;;;;;12.93;6.47;;;-2.90;99.90;;;;;;5074496;28;20423;-85
2023/01/30 03:46:41;;;;;;;10.83;6.83;;;-2.90;99.90;;;;;;5074396;28;20476;-86
2023/01/30 03:49:06;;;;;;;17.40;6.00;;;-2.80;99.90;;;;;;5074378;28;20185;-85
2023/01/30 03:51:32;;;;;;;9.10;5.13;;;-2.70;99.90;;;;;;5073801;28;20181;-85
2023/01/30 03:53:57;;;;;;;12.53;5.37;;;-2.60;99.90;;;;;;5066538;28;20197;-86
2023/01/30 03:56:23;;;;;;;18.57;5.23;;;-2.50;99.90;;;;;;5073319;28;20181;-86
2023/01/30 03:58:49;;;;;;;1.40;0.70;;;-2.40;99.90;;;;;;5074376;28;20174;-86
2023/01/30 04:01:14;;;;;;;1.63;0.53;;;-2.50;99.90;;;;;;5073093;28;20667;-85
2023/01/30 04:03:40;;;;;;;1.50;0.60;;;-2.50;99.90;;;;;;5067567;28;20193;-85
2023/01/30 04:06:06;;;;;;;1.10;0.50;;;-2.60;99.90;;;;;;5073960;28;20547;-86
2023/01/30 04:08:31;;;;;;;14.60;6.43;;;-2.60;99.90;;;;;;5073918;28;20274;-86
2023/01/30 04:10:57;;;;;;;11.80;6.30;;;-2.60;99.90;;;;;;5072926;28;20841;-86
2023/01/30 04:13:22;;;;;;;10.47;5.30;;;-2.60;99.90;;;;;;5061442;28;20193;-86
2023/01/30 04:15:48;;;;;;;10.40;6.00;;;-2.60;99.90;;;;;;5074046;28;20652;-86
2023/01/30 04:18:14;;;;;;;12.80;5.13;;;-2.60;99.90;;;;;;5073288;28;20193;-85
2023/01/30 04:20:39;;;;;;;14.87;5.90;;;-2.60;99.90;;;;;;5067544;28;20194;-85
2023/01/30 04:23:05;;;;;;;14.33;5.40;;;-2.50;99.90;;;;;;5073665;28;20188;-85
2023/01/30 04:25:30;;;;;;;14.20;5.90;;;-2.40;99.90;;;;;;5060217;28;20291;-85
2023/01/30 04:27:56;;;;;;;1.77;0.60;;;-2.40;99.90;;;;;;5072047;28;20201;-85
2023/01/30 04:30:22;;;;;;;9.20;4.93;;;-2.40;99.90;;;;;;5071865;28;20185;-85
2023/01/30 04:32:47;;;;;;;10.90;4.97;;;-2.30;99.90;;;;;;5053133;28;20181;-84
2023/01/30 04:35:13;;;;;;;12.53;5.20;;;-2.30;99.90;;;;;;5066345;28;20443;-85
2023/01/30 04:37:39;;;;;;;12.07;6.13;;;-2.30;99.90;;;;;;5059301;28;20208;-85
2023/01/30 04:40:05;;;;;;;10.73;5.27;;;-2.30;99.90;;;;;;5071400;28;20251;-86
2023/01/30 04:42:31;;;;;;;12.03;6.00;;;-2.30;99.90;;;;;;5078998;28;20194;-85
2023/01/30 04:44:56;;;;;;;15.40;6.03;;;-2.30;99.90;;;;;;5070899;28;20886;-85
2023/01/30 04:47:22;;;;;;;13.53;6.50;;;-2.30;99.90;;;;;;5066153;28;20196;-85
2023/01/30 04:49:47;;;;;;;9.20;4.93;;;-2.30;99.90;;;;;;5076449;28;20656;-85
2023/01/30 04:52:13;;;;;;;11.60;5.40;;;-2.40;99.90;;;;;;5064098;28;20182;-85
2023/01/30 04:54:38;;;;;;;9.90;4.97;;;-2.30;99.90;;;;;;5065084;28;20173;-86
2023/01/30 04:57:04;;;;;;;14.53;6.67;;;-2.30;99.90;;;;;;5083154;28;20251;-85
2023/01/30 04:59:30;;;;;;;1.00;0.50;;;-2.20;99.90;;;;;;5072562;28;20180;-85
2023/01/30 05:01:55;;;;;;;1.30;0.50;;;-2.20;99.90;;;;;;5072412;28;20645;-85
2023/01/30 05:04:21;;;;;;;1.83;0.90;;;-2.20;99.90;;;;;;5072735;28;20234;-85
2023/01/30 05:06:46;;;;;;;1.20;0.63;;;-2.30;99.90;;;;;;5071002;28;20192;-85
2023/01/30 05:09:12;;;;;;;13.40;6.00;;;-2.20;99.90;;;;;;5071969;28;20173;-85
2023/01/30 05:11:37;;;;;;;9.63;5.57;;;-2.20;99.90;;;;;;5058034;28;20204;-85
2023/01/30 05:14:03;;;;;;;12.63;5.60;;;-2.20;99.90;;;;;;5063055;28;20186;-85
2023/01/30 05:16:29;;;;;;;14.23;6.80;;;-2.20;99.90;;;;;;5067759;28;20181;-85
2023/01/30 05:18:54;;;;;;;11.10;5.97;;;-2.10;99.90;;;;;;5071804;28;20181;-85
2023/01/30 05:21:29;;;;;;;9.10;5.63;;;-2.20;99.90;;;;;;5071589;28;20649;-85
2023/01/30 05:23:56;;;;;;;11.13;5.30;;;-2.20;99.90;;;;;;5071732;28;20184;-85
2023/01/30 05:26:22;;;;;;;10.33;6.07;;;-2.10;99.90;;;;;;5070201;28;20431;-85
2023/01/30 05:28:56;;;;;;;8.60;4.67;;;-2.10;99.90;;;;;;5077935;28;20908;-85
2023/01/30 05:31:22;;;;;;;16.63;5.70;;;-2.10;99.90;;;;;;5058541;28;20866;-85
2023/01/30 05:33:49;;;;;;;12.40;5.63;;;-2.10;99.90;;;;;;5068575;28;20439;-85
2023/01/30 05:36:17;;;;;;;14.23;5.90;;;-2.10;99.90;;;;;;5051748;28;20170;-85
2023/01/30 05:38:43;;;;;;;10.20;5.43;;;-2.10;99.90;;;;;;5025211;28;1107203;-85
2023/01/30 05:41:11;;;;;;;11.20;5.50;;;-2.00;99.90;;;;;;5060697;28;20214;-85
2023/01/30 05:43:36;;;;;;;11.83;5.47;;;-2.10;99.90;;;;;;5069180;28;20450;-86
2023/01/30 05:46:04;;;;;;;18.70;6.27;;;-2.00;99.90;;;;;;5064729;28;20522;-86
2023/01/30 05:48:31;;;;;;;10.20;5.23;;;-2.00;99.90;;;;;;5059690;28;20224;-86
2023/01/30 05:50:57;;;;;;;8.27;4.93;;;-2.10;99.90;;;;;;5066430;28;20419;-86
2023/01/30 05:53:27;;;;;;;18.70;5.73;;;-2.00;99.90;;;;;;5072452;28;20426;-86
2023/01/30 05:56:02;;;;;;;11.10;5.63;;;-2.00;99.90;;;;;;5065165;28;20530;-86
2023/01/30 05:58:28;;;;;;;18.63;7.40;;;-2.00;99.90;;;;;;5071727;28;20477;-86
2023/01/30 06:01:02;;;;;;;12.23;5.67;;;-2.00;99.90;;;;;;5065310;28;20503;-86
2023/01/30 06:03:28;;;;;;;11.67;5.40;;;-1.90;99.90;;;;;;5069120;28;20427;-85
2023/01/30 06:05:54;;;;;;;11.67;5.30;;;-1.90;99.90;;;;;;5069129;28;20702;-85
2023/01/30 06:08:20;;;;;;;11.60;5.23;;;-1.80;99.90;;;;;;5070458;28;20464;-87
2023/01/30 06:10:45;;;;;;;11.37;5.10;;;-1.80;99.90;;;;;;5068502;28;20173;-85
2023/01/30 06:13:11;;;;;;;10.63;5.67;;;-1.70;99.90;;;;;;5076302;28;20584;-85
2023/01/30 06:15:37;;;;;;;8.23;4.70;;;-1.70;99.90;;;;;;5064026;28;20174;-85
2023/01/30 06:18:02;;;;;;;12.50;6.27;;;-1.60;99.90;;;;;;5071210;28;20572;-85
2023/01/30 06:20:28;;;;;;;14.90;6.40;;;-1.60;99.90;;;;;;5077733;28;20539;-87
2023/01/30 06:22:53;;;;;;;10.73;4.73;;;-1.70;99.90;;;;;;5068769;28;20209;-86
2023/01/30 06:25:19;;;;;;;10.63;5.47;;;-1.70;99.90;;;;;;5082696;28;20222;-87
2023/01/30 06:27:45;;;;;;;11.70;5.37;;;-1.80;99.90;;;;;;5084867;28;20644;-87
2023/01/30 06:30:12;;;;;;;14.80;5.37;;;-1.90;99.90;;;;;;5086386;28;20235;-87
2023/01/30 06:32:37;;;;;;;10.03;4.73;;;-1.90;99.90;;;;;;5080597;28;20411;-86
2023/01/30 06:35:03;;;;;;;11.07;5.77;;;-1.90;99.90;;;;;;5074635;28;20445;-87
2023/01/30 06:37:29;;;;;;;8.50;5.40;;;-2.00;99.90;;;;;;5076096;28;20640;-87
2023/01/30 06:39:54;;;;;;;9.70;5.70;;;-1.90;99.90;;;;;;5074454;28;20489;-87
2023/01/30 06:42:20;;;;;;;10.10;5.80;;;-1.90;99.90;;;;;;5061702;28;20181;-86
2023/01/30 06:44:45;;;;;;;12.80;5.50;;;-1.90;99.90;;;;;;5061283;28;20197;-86
2023/01/30 06:47:11;;;;;;;14.57;6.17;;;-1.80;99.90;;;;;;5068786;28;20720;-85
2023/01/30 06:49:36;;;;;;;10.60;5.50;;;-1.90;99.90;;;;;;5067866;28;20185;-84
2023/01/30 06:52:02;;;;;;;6.70;4.10;;;-1.80;99.90;;;;;;5057829;28;20209;-86
2023/01/30 06:54:28;;;;;;;13.40;5.37;;;-1.90;99.90;;;;;;5066781;28;20684;-84
2023/01/30 06:56:53;;;;;;;9.87;5.70;;;-1.90;99.90;;;;;;5073474;28;20187;-86
2023/01/30 06:59:19;;;;;;;1.10;0.50;;;-1.80;99.90;;;;;;5074969;28;20586;-85
2023/01/30 07:01:44;;;;;;;11.73;6.40;;;-1.80;99.90;;;;;;5075088;28;20264;-86
2023/01/30 07:04:10;;;;;;;7.73;4.50;;;-1.90;99.90;;;;;;5072356;28;20200;-86
2023/01/30 07:06:36;;;;;;;13.60;5.17;;;-1.80;99.90;;;;;;5054950;28;20257;-86
2023/01/30 07:09:01;;;;;;;8.40;4.53;;;-1.80;99.90;;;;;;5068552;28;20219;-84
2023/01/30 07:11:27;;;;;;;9.63;4.03;;;-1.80;99.90;;;;;;5054398;28;20563;-86
2023/01/30 07:13:53;;;;;;;15.30;5.83;;;-1.80;99.90;;;;;;5071914;28;20181;-85
2023/01/30 07:16:18;;;;;;;12.47;6.50;;;-1.80;99.90;;;;;;5063178;28;20418;-85
2023/01/30 07:18:44;;;;;;;13.33;5.43;;;-1.70;99.90;;;;;;5061384;28;20198;-85
2023/01/30 07:21:10;;;;;;;11.27;4.63;;;-1.60;99.90;;;;;;5074920;28;20270;-85
2023/01/30 07:23:35;;;;;;;7.40;3.90;;;-1.70;99.90;;;;;;5073428;28;20621;-85
2023/01/30 07:26:05;;;;;;;8.87;4.37;;;-1.60;99.90;;;;;;5066458;28;20182;-85
2023/01/30 07:28:30;;;;;;;10.30;4.53;;;-1.60;99.90;;;;;;5068176;28;20205;-85
2023/01/30 07:31:00;;;;;;;10.43;4.70;;;-1.50;99.90;;;;;;5064163;28;20407;-85
2023/01/30 07:33:26;;;;;;;7.87;5.10;;;-1.50;99.90;;;;;;5071587;28;20200;-86
2023/01/30 07:35:51;;;;;;;10.57;5.10;;;-1.50;99.90;;;;;;5074406;28;20411;-82
2023/01/30 07:38:17;;;;;;;13.87;4.97;;;-1.40;99.90;;;;;;5074349;28;20637;-82
2023/01/30 07:40:42;;;;;;;10.17;4.83;;;-1.40;99.90;;;;;;5073961;28;20195;-82
2023/01/30 07:43:11;;;;;;;10.23;4.60;;;-1.40;99.90;;;;;;5061680;28;20193;-82
2023/01/30 07:45:38;;;;;;;13.00;5.50;;;-1.30;99.90;;;;;;5060524;28;20217;-82
2023/01/30 07:48:04;;;;;;;8.50;4.50;;;-1.30;99.90;;;;;;5073884;28;20455;-82
2023/01/30 07:50:29;;;;;;;8.43;4.20;;;-1.30;99.90;;;;;;5069241;28;20427;-82
2023/01/30 07:52:55;;;;;;;6.90;3.80;;;-1.30;99.90;;;;;;5060399;28;20511;-82
2023/01/30 07:55:21;;;;;;;11.87;4.70;;;-1.30;99.90;;;;;;5059842;28;20212;-82
2023/01/30 07:57:46;;;;;;;7.73;4.57;;;-1.30;99.90;;;;;;5073381;28;20193;-82
2023/01/30 08:00:12;;;;;;;11.27;4.93;;;-1.30;99.90;;;;;;5065867;28;20231;-82
2023/01/30 08:02:38;;;;;;;8.83;4.30;;;-1.30;99.90;;;;;;5060813;28;20182;-82
2023/01/30 08:05:04;;;;;;;10.83;4.83;;;-1.40;99.90;;;;;;5066857;28;20417;-82
2023/01/30 08:07:29;;;;;;;9.57;4.70;;;-1.40;99.90;;;;;;5063907;28;20246;-82
2023/01/30 08:09:55;;;;;;;10.03;3.90;;;-1.30;99.90;;;;;;5073479;28;20260;-82
2023/01/30 08:12:20;;;;;;;6.70;3.23;;;-1.30;99.90;;;;;;5069680;28;20196;-82
2023/01/30 08:14:46;;;;;;;9.10;5.10;;;-1.20;99.90;;;;;;5066728;28;20480;-82
2023/01/30 08:17:12;;;;;;;8.43;4.03;;;-1.20;99.90;;;;;;5065689;28;20185;-82
2023/01/30 08:19:37;;;;;;;10.30;5.53;;;-1.10;99.90;;;;;;5073274;28;20633;-82
2023/01/30 08:22:03;;;;;;;14.20;4.60;;;-1.00;99.90;;;;;;5072939;28;20189;-83
2023/01/30 08:24:29;;;;;;;8.83;4.50;;;-1.00;99.90;;;;;;5072914;28;20189;-82
2023/01/30 08:26:54;;;;;;;9.53;4.50;;;-0.90;99.90;;;;;;5072933;28;20717;-79
2023/01/30 08:29:20;;;;;;;8.27;3.80;;;-0.90;99.90;;;;;;5067311;28;20189;-79
2023/01/30 08:31:47;;;;;;;9.17;5.00;;;-0.90;99.90;;;;;;5065303;28;20633;-79
2023/01/30 08:34:12;;;;;;;15.70;4.90;;;-0.90;99.90;;;;;;5066870;28;20508;-77
2023/01/30 08:36:38;;;;;;;8.23;3.80;;;-0.90;99.90;;;;;;5065424;28;20832;-79
2023/01/30 08:39:04;;;;;;;8.23;4.00;;;-0.90;99.90;;;;;;5066864;28;20211;-80
2023/01/30 08:41:29;;;;;;;7.27;3.27;;;-0.90;99.90;;;;;;5064969;28;20202;-79
2023/01/30 08:43:55;;;;;;;8.50;3.87;;;-0.80;99.90;;;;;;5047790;28;20256;-79
2023/01/30 08:46:20;;;;;;;9.60;4.10;;;-0.80;99.90;;;;;;5052627;28;20186;-80
2023/01/30 08:48:47;;;;;;;7.67;3.40;;;-0.70;99.90;;;;;;5048387;28;20210;-79
2023/01/30 08:51:12;;;;;;;10.43;4.00;;;-0.70;99.90;;;;;;5040245;28;20290;-79
2023/01/30 08:53:38;;;;;;;9.47;3.57;;;-0.60;99.90;;;;;;5038484;28;20900;-79
2023/01/30 08:56:04;;;;;;;11.70;5.27;;;-0.70;99.90;;;;;;5044261;28;20269;-79
2023/01/30 08:58:29;;;;;;;7.13;4.07;;;-0.60;99.90;;;;;;5050562;28;20213;-80
2023/01/30 09:00:55;;;;;;;11.53;5.90;;;-0.40;99.90;;;;;;5050155;28;20276;-78
2023/01/30 09:03:21;;;;;;;6.63;3.90;;;-0.30;99.90;;;;;;5052863;28;20197;-79
2023/01/30 09:05:46;;;;;;;9.57;3.80;;;-0.10;99.90;;;;;;5055006;28;20182;-79
2023/01/30 09:08:12;;;;;;;8.40;3.73;;;-0.10;99.90;;;;;;5047516;28;20587;-79
2023/01/30 09:10:38;;;;;;;7.07;3.70;;;0.00;99.90;;;;;;5044165;28;20210;-78
2023/01/30 09:13:04;;;;;;;6.47;4.27;;;0.00;99.90;;;;;;5045612;28;20590;-77
2023/01/30 09:15:31;;;;;;;7.23;3.30;;;0.10;99.90;;;;;;5032437;28;20477;-77
2023/01/30 09:17:56;;;;;;;8.33;3.23;;;0.10;99.90;;;;;;5045559;28;20506;-77
2023/01/30 09:20:22;;;;;;;8.10;3.70;;;0.20;99.90;;;;;;5047588;28;20531;-76
2023/01/30 09:22:48;;;;;;;3.23;2.40;;;0.40;99.90;;;;;;5044498;28;20185;-77
2023/01/30 09:25:14;;;;;;;8.23;4.20;;;0.40;99.90;;;;;;5039746;28;20224;-76
2023/01/30 09:27:43;;;;;;;8.47;4.20;;;0.40;99.90;;;;;;5038532;28;20683;-76
2023/01/30 09:30:09;;;;;;;7.50;4.53;;;0.40;99.90;;;;;;5052049;28;20616;-76
2023/01/30 09:32:36;;;;;;;4.23;2.90;;;0.50;99.90;;;;;;5051360;28;20424;-76
2023/01/30 09:35:02;;;;;;;7.97;4.07;;;0.60;99.90;;;;;;5043685;28;20925;-75
2023/01/30 09:37:28;;;;;;;5.40;2.70;;;0.70;99.90;;;;;;5046938;28;20779;-75
2023/01/30 09:39:53;;;;;;;6.00;3.50;;;0.80;99.90;;;;;;5051300;28;20439;-75
2023/01/30 09:42:37;;;;;;;8.10;3.47;;;0.90;99.90;;;;;;5038066;28;20269;-75
2023/01/30 09:45:29;;;;;;;6.97;3.60;;;1.00;99.90;;;;;;5041273;28;20194;-76
2023/01/30 09:48:05;;;;;;;4.53;2.93;;;1.20;99.90;;;;;;5039102;28;20460;-75
2023/01/30 09:50:49;;;;;;;6.17;3.40;;;1.20;99.90;;;;;;5049403;28;20439;-75
2023/01/30 09:53:23;;;;;;;8.03;3.27;;;1.10;99.90;;;;;;5043800;28;20412;-75
2023/01/30 09:55:49;;;;;;;8.30;4.10;;;1.10;99.90;;;;;;5032142;28;20849;-76
2023/01/30 09:58:21;;;;;;;5.40;3.43;;;1.00;99.90;;;;;;5042052;28;20506;-76
2023/01/30 10:00:50;;;;;;;7.93;4.10;;;1.00;99.90;;;;;;5051866;28;20424;-75
2023/01/30 10:03:36;;;;;;;7.50;3.60;;;1.00;99.90;;;;;;5044779;28;20461;-75
2023/01/30 10:06:11;;;;;;;9.10;3.33;;;1.10;99.90;;;;;;5047463;28;20416;-76
2023/01/30 10:09:01;;;;;;;5.90;2.83;;;1.20;99.90;;;;;;5051625;28;20479;-77
2023/01/30 10:11:27;;;;;;;6.93;2.30;;;1.30;99.90;;;;;;5038605;28;20419;-76
2023/01/30 10:14:34;;;;;;;6.60;3.43;;;1.50;99.90;;;;;;5051319;28;20416;-75
2023/01/30 10:17:23;;;;;;;4.33;1.93;;;1.70;99.90;;;;;;5044355;28;20540;-75
2023/01/30 10:20:13;;;;;;;4.50;2.40;;;1.90;99.90;;;;;;5047539;28;20520;-76
2023/01/30 10:23:06;;;;;;;3.40;1.93;;;2.00;99.90;;;;;;5038930;28;20506;-77
2023/01/30 10:25:42;;;;;;;4.03;1.90;;;2.10;99.90;;;;;;5033883;28;20436;-76
2023/01/30 10:28:17;;;;;;;3.77;1.53;;;2.10;99.90;;;;;;5042262;28;20975;-77
2023/01/30 10:30:46;;;;;;;5.23;2.17;;;2.20;99.90;;;;;;5046284;28;20424;-77
2023/01/30 10:33:29;;;;;;;2.97;1.70;;;2.30;99.90;;;;;;5047463;28;20482;-78
2023/01/30 10:36:03;;;;;;;3.37;1.50;;;2.60;99.90;;;;;;5055393;28;20772;-78
2023/01/30 10:38:34;;;;;;;2.80;1.87;;;2.90;99.90;;;;;;5041642;28;20494;-79
2023/01/30 10:41:21;;;;;;;2.60;1.47;;;3.00;99.90;;;;;;5054771;28;20419;-79
2023/01/30 10:44:07;;;;;;;6.87;2.50;;;2.80;99.90;;;;;;5035059;28;20413;-79
2023/01/30 10:46:52;;;;;;;5.20;2.70;;;2.70;99.90;;;;;;5034246;28;20416;-71
2023/01/30 10:49:42;;;;;;;9.33;2.60;;;2.60;99.90;;;;;;5045551;28;20417;-77
2023/01/30 10:52:40;;;;;;;3.47;1.93;;;2.50;99.90;;;;;;5037106;28;20450;-77
2023/01/30 10:55:06;;;;;;;5.30;2.47;;;2.50;99.90;;;;;;5048402;28;20850;-77
2023/01/30 10:58:05;;;;;;;4.83;2.23;;;2.30;99.90;;;;;;5045335;28;20515;-77
2023/01/30 11:00:37;;;;;;;4.50;2.10;;;2.30;99.90;;;;;;5054121;28;20196;-78
2023/01/30 11:03:29;;;;;;;3.63;2.27;;;2.30;99.90;;;;;;5053936;28;20420;-74
2023/01/30 11:06:22;;;;;;;5.67;2.50;;;2.20;99.90;;;;;;5066608;28;20416;-83
2023/01/30 11:08:48;;;;;;;3.83;2.17;;;2.20;99.90;;;;;;5047656;28;20468;-80
2023/01/30 11:11:48;;;;;;;2.40;1.77;;;2.20;99.90;;;;;;5047186;28;20424;-79
2023/01/30 11:14:14;;;;;;;4.50;2.47;;;2.10;99.90;;;;;;5056129;28;20419;-78
2023/01/30 11:16:47;;;;;;;6.27;3.37;;;2.00;99.90;;;;;;5052369;28;20902;-79
2023/01/30 11:19:14;;;;;;;6.80;2.63;;;2.00;99.90;;;;;;5046678;28;20261;-79
2023/01/30 11:21:42;;;;;;;4.90;2.80;;;2.00;99.90;;;;;;5046432;28;20420;-78
2023/01/30 11:24:23;;;;;;;3.93;2.20;;;2.00;99.90;;;;;;5053949;28;20565;-78
2023/01/30 11:26:49;;;;;;;4.17;1.80;;;2.00;99.90;;;;;;5053702;28;20424;-79
2023/01/30 11:29:29;;;;;;;5.70;2.37;;;2.00;99.90;;;;;;5045221;28;20479;-77
2023/01/30 11:32:00;;;;;;;5.47;2.40;;;2.00;99.90;;;;;;5050211;28;20494;-78
2023/01/30 11:34:26;;;;;;;5.50;2.70;;;2.00;99.90;;;;;;5042463;28;20420;-77
2023/01/30 11:36:52;;;;;;;4.00;2.13;;;2.00;99.90;;;;;;5046923;28;20508;-79
2023/01/30 11:39:21;;;;;;;5.00;2.00;;;2.10;99.90;;;;;;5033486;28;20224;-79
2023/01/30 11:41:56;;;;;;;3.10;1.43;;;2.10;99.90;;;;;;5032820;28;20206;-79
2023/01/30 11:44:29;;;;;;;4.47;2.30;;;2.10;99.90;;;;;;5032770;28;20909;-79
2023/01/30 11:47:02;;;;;;;6.10;2.50;;;2.30;99.90;;;;;;5046012;28;20424;-79
2023/01/30 11:49:34;;;;;;;4.90;2.87;;;2.20;99.90;;;;;;5041151;28;20881;-78
2023/01/30 11:52:00;;;;;;;6.70;2.20;;;2.10;99.90;;;;;;5052888;28;20419;-78
2023/01/30 11:54:43;;;;;;;3.00;2.23;;;2.10;99.90;;;;;;5039298;28;20425;-77
2023/01/30 11:57:13;;;;;;;4.10;2.17;;;2.00;99.90;;;;;;5051690;28;20223;-69
2023/01/30 11:59:38;;;;;;;4.70;2.53;;;2.00;99.90;;;;;;5042528;28;20416;-78
2023/01/30 12:02:13;;;;;;;4.57;2.47;;;2.00;99.90;;;;;;5052464;28;20408;-79
2023/01/30 12:04:44;;;;;;;7.90;3.50;;;2.10;99.90;;;;;;5053129;28;20575;-78
2023/01/30 12:07:27;;;;;;;4.50;2.43;;;2.10;99.90;;;;;;5052659;28;20416;-78
2023/01/30 12:09:54;;;;;;;4.10;2.20;;;2.00;99.90;;;;;;5044560;28;20424;-78
2023/01/30 12:12:25;;;;;;;4.53;2.73;;;2.00;99.90;;;;;;5041608;28;20904;-78
2023/01/30 12:14:53;;;;;;;5.60;2.37;;;1.90;99.90;;;;;;5043787;28;20413;-78
2023/01/30 12:17:32;;;;;;;4.53;1.90;;;1.80;99.90;;;;;;5032660;28;20420;-78
2023/01/30 12:20:24;;;;;;;3.13;1.83;;;1.70;99.90;;;;;;5033403;28;20417;-78
2023/01/30 12:23:29;;;;;;;4.83;2.40;;;1.60;99.90;;;;;;5040479;28;20499;-78
2023/01/30 12:26:20;;;;;;;7.47;3.07;;;1.60;99.90;;;;;;5033089;28;20802;-78
2023/01/30 12:29:06;;;;;;;6.20;2.77;;;1.60;99.90;;;;;;5058208;28;20467;-78
2023/01/30 12:31:38;;;;;;;7.50;3.30;;;1.60;99.90;;;;;;5027899;28;20910;-77
2023/01/30 12:34:03;;;;;;;6.30;2.63;;;1.50;99.90;;;;;;5032444;28;20416;-77
2023/01/30 12:36:32;;;;;;;5.00;2.90;;;1.50;99.90;;;;;;5045567;28;20898;-77
2023/01/30 12:39:04;;;;;;;3.30;1.83;;;1.50;99.90;;;;;;5052383;28;20197;-78
2023/01/30 12:41:56;;;;;;;3.93;2.33;;;1.40;99.90;;;;;;5038631;28;20417;-77
2023/01/30 12:44:38;;;;;;;4.70;2.60;;;1.40;99.90;;;;;;5034053;28;20425;-77
2023/01/30 12:47:30;;;;;;;3.97;2.43;;;1.40;99.90;;;;;;5042810;28;20420;-78
2023/01/30 12:50:50;;;;;;;6.60;3.00;;;1.50;99.90;;;;;;5043329;28;20421;-77
2023/01/30 12:53:36;;;;;;;6.97;2.40;;;1.60;99.90;;;;;;5035336;28;20919;-77
2023/01/30 12:56:34;;;;;;;6.70;3.10;;;1.60;99.90;;;;;;5044962;28;20451;-77
2023/01/30 12:58:59;;;;;;;5.30;2.60;;;1.60;99.90;;;;;;5050009;28;20446;-77
2023/01/30 13:01:46;;;;;;;5.60;2.83;;;1.50;99.90;;;;;;5051935;28;20500;-77
2023/01/30 13:04:18;;;;;;;6.13;2.67;;;1.50;99.90;;;;;;5049294;28;20177;-77
2023/01/30 13:06:55;;;;;;;4.83;2.47;;;1.50;99.90;;;;;;5050573;28;20976;-77
2023/01/30 13:10:08;;;;;;;4.47;2.67;;;1.50;99.90;;;;;;5049693;28;20467;-77
2023/01/30 13:12:41;;;;;;;3.90;2.57;;;1.50;99.90;;;;;;5012640;28;20597;-77